Time;durP1;ratioP1;P1;durP2;ratioP2;P2;SDS_P1;SDS_P2;PMS_P1;PMS_P2;Temp;Humidity;BMP_temperature;BMP_pressure;BME280_temperature;BME280_humidity;BME280_pressure;Samples;Min_cycle;Max_cycle;Signal;HPM_P1;HPM_P2
2024/02/12 00:01:46;;;;;;;10.88;3.03;;;;;;;;;;4906663;29;20048;-76
2024/02/12 00:04:18;;;;;;;16.58;3.28;;;;;;;;;;4907609;29;20500;-75
2024/02/12 00:06:49;;;;;;;9.52;3.08;;;;;;;;;;4905811;29;20535;-75
2024/02/12 00:09:22;;;;;;;12.48;3.13;;;;;;;;;;4905050;29;20059;-74
2024/02/12 00:11:54;;;;;;;11.05;2.85;;;;;;;;;;4907156;29;20059;-76
2024/02/12 00:14:25;;;;;;;11.07;3.17;;;;;;;;;;4906499;29;20528;-75
2024/02/12 00:16:57;;;;;;;8.77;3.13;;;;;;;;;;4906172;29;20056;-76
2024/02/12 00:19:28;;;;;;;10.00;3.05;;;;;;;;;;4906656;29;20048;-75
2024/02/12 00:22:00;;;;;;;15.52;3.03;;;;;;;;;;4906430;29;20530;-77
2024/02/12 00:24:30;;;;;;;14.77;3.13;;;;;;;;;;4906386;29;20527;-74
2024/02/12 00:27:02;;;;;;;9.32;2.75;;;;;;;;;;4905261;29;20066;-76
2024/02/12 00:29:34;;;;;;;7.32;2.70;;;;;;;;;;4907275;29;20051;-74
2024/02/12 00:32:06;;;;;;;12.50;3.10;;;;;;;;;;4907314;29;20052;-75
2024/02/12 00:34:36;;;;;;;10.20;3.20;;;;;;;;;;4904384;29;20055;-74
2024/02/12 00:40:40;;;;;;;7.38;2.78;;;;;;;;;;4906689;29;20594;-74
2024/02/12 00:43:11;;;;;;;7.75;3.42;;;;;;;;;;4905873;29;20412;-74
2024/02/12 00:45:43;;;;;;;9.63;2.70;;;;;;;;;;4906428;29;20060;-76
2024/02/12 00:48:13;;;;;;;7.43;2.92;;;;;;;;;;4906275;29;20520;-74
2024/02/12 00:50:44;;;;;;;10.15;2.90;;;;;;;;;;4906378;29;20051;-75
2024/02/12 00:53:15;;;;;;;10.52;3.40;;;;;;;;;;4906010;29;20416;-75
2024/02/12 00:55:46;;;;;;;5.38;2.80;;;;;;;;;;4905479;29;20545;-75
2024/02/12 00:58:17;;;;;;;13.02;2.85;;;;;;;;;;4906761;29;20052;-75
2024/02/12 01:00:47;;;;;;;13.30;3.30;;;;;;;;;;4904205;29;20427;-75
2024/02/12 01:03:18;;;;;;;4.72;2.15;;;;;;;;;;4906344;29;20060;-75
2024/02/12 01:05:49;;;;;;;7.50;2.55;;;;;;;;;;4906308;29;20095;-75
2024/02/12 01:08:26;;;;;;;6.55;2.67;;;;;;;;;;4905983;29;20516;-74
2024/02/12 01:11:00;;;;;;;7.93;3.00;;;;;;;;;;4905833;29;20423;-75
2024/02/12 01:13:33;;;;;;;10.23;2.42;;;;;;;;;;4906045;29;20052;-75
2024/02/12 01:16:04;;;;;;;8.75;2.90;;;;;;;;;;4906294;29;20067;-75
2024/02/12 01:18:35;;;;;;;6.75;2.63;;;;;;;;;;4905851;29;20531;-76
2024/02/12 01:21:06;;;;;;;5.00;2.58;;;;;;;;;;4904750;29;20761;-74
2024/02/12 01:23:37;;;;;;;10.93;2.40;;;;;;;;;;4905296;29;20055;-74
2024/02/12 01:26:08;;;;;;;14.80;2.72;;;;;;;;;;4905755;29;20048;-74
2024/02/12 01:28:38;;;;;;;9.38;2.20;;;;;;;;;;4905897;29;20056;-74
2024/02/12 01:31:17;;;;;;;10.25;2.70;;;;;;;;;;4905805;29;20048;-74
2024/02/12 01:33:48;;;;;;;5.38;2.20;;;;;;;;;;4906111;29;20044;-75
2024/02/12 01:36:19;;;;;;;6.03;2.60;;;;;;;;;;4905907;29;20055;-75
2024/02/12 01:38:49;;;;;;;7.18;2.35;;;;;;;;;;4906062;29;20048;-75
2024/02/12 01:41:20;;;;;;;10.18;2.53;;;;;;;;;;4906057;29;20074;-75
2024/02/12 01:43:52;;;;;;;6.97;2.40;;;;;;;;;;4905185;29;20051;-74
2024/02/12 01:46:22;;;;;;;4.35;2.30;;;;;;;;;;4907376;29;20048;-74
2024/02/12 01:48:53;;;;;;;8.32;2.75;;;;;;;;;;4909082;29;20631;-75
2024/02/12 01:51:26;;;;;;;5.03;2.00;;;;;;;;;;4909891;29;20048;-76
2024/02/12 01:53:59;;;;;;;7.18;2.50;;;;;;;;;;4907130;29;20060;-73
2024/02/12 01:56:30;;;;;;;4.63;2.58;;;;;;;;;;4909924;29;20056;-74
2024/02/12 01:59:03;;;;;;;5.15;2.40;;;;;;;;;;4907824;29;20055;-75
2024/02/12 02:01:34;;;;;;;7.88;2.50;;;;;;;;;;4909438;29;20052;-74
2024/02/12 02:04:06;;;;;;;7.03;2.50;;;;;;;;;;4907026;29;20892;-73
2024/02/12 02:06:37;;;;;;;4.60;2.30;;;;;;;;;;4908883;29;20052;-76
2024/02/12 02:09:08;;;;;;;10.32;2.42;;;;;;;;;;4909189;29;20052;-74
2024/02/12 02:11:38;;;;;;;6.28;2.50;;;;;;;;;;4909512;29;20059;-73
2024/02/12 02:14:13;;;;;;;4.30;2.20;;;;;;;;;;4908827;29;20044;-75
2024/02/12 02:16:45;;;;;;;7.57;2.47;;;;;;;;;;4908475;29;20060;-74
2024/02/12 02:19:15;;;;;;;4.70;2.42;;;;;;;;;;4909224;29;20044;-75
2024/02/12 02:21:46;;;;;;;6.07;2.42;;;;;;;;;;4908798;29;20055;-78
2024/02/12 02:24:18;;;;;;;3.70;2.47;;;;;;;;;;4908717;29;20052;-74
2024/02/12 02:26:50;;;;;;;9.68;2.70;;;;;;;;;;4908395;29;20052;-74
2024/02/12 02:29:22;;;;;;;6.20;2.72;;;;;;;;;;4908442;29;20052;-74
2024/02/12 02:31:53;;;;;;;3.45;2.17;;;;;;;;;;4908908;29;20063;-75
2024/02/12 02:34:23;;;;;;;6.05;2.53;;;;;;;;;;4908408;29;20067;-75
2024/02/12 02:36:54;;;;;;;5.82;2.40;;;;;;;;;;4907510;29;20063;-75
2024/02/12 02:39:25;;;;;;;4.38;2.45;;;;;;;;;;4908833;29;20056;-75
2024/02/12 02:41:57;;;;;;;3.30;2.10;;;;;;;;;;4909104;29;20500;-75
2024/02/12 02:44:27;;;;;;;6.05;2.25;;;;;;;;;;4909632;29;20496;-74
2024/02/12 02:46:58;;;;;;;5.53;2.30;;;;;;;;;;4908865;29;20054;-74
2024/02/12 02:49:31;;;;;;;4.38;2.40;;;;;;;;;;4908430;29;20514;-74
2024/02/12 02:52:02;;;;;;;7.88;2.60;;;;;;;;;;4908098;29;20059;-75
2024/02/12 02:54:33;;;;;;;7.15;2.45;;;;;;;;;;4908136;29;20055;-75
2024/02/12 02:57:07;;;;;;;8.10;2.55;;;;;;;;;;4906029;29;20795;-75
2024/02/12 02:59:38;;;;;;;6.40;2.53;;;;;;;;;;4908518;29;20044;-75
2024/02/12 03:02:12;;;;;;;5.43;2.50;;;;;;;;;;4908220;29;20500;-75
2024/02/12 03:04:42;;;;;;;5.45;2.45;;;;;;;;;;4907494;29;20048;-75
2024/02/12 03:07:15;;;;;;;6.35;2.75;;;;;;;;;;4907882;29;20051;-74
2024/02/12 03:09:57;;;;;;;6.32;2.72;;;;;;;;;;4908116;29;20063;-74
2024/02/12 03:12:30;;;;;;;6.65;2.90;;;;;;;;;;4908618;29;20044;-75
2024/02/12 03:15:00;;;;;;;6.32;2.70;;;;;;;;;;4908314;29;20078;-75
2024/02/12 03:17:31;;;;;;;6.25;2.97;;;;;;;;;;4906083;29;20404;-74
2024/02/12 03:20:02;;;;;;;7.40;2.80;;;;;;;;;;4906340;29;20431;-74
2024/02/12 03:22:33;;;;;;;4.70;2.67;;;;;;;;;;4906650;29;20059;-75
2024/02/12 03:25:05;;;;;;;13.23;2.60;;;;;;;;;;4908409;29;20051;-74
2024/02/12 03:27:43;;;;;;;4.88;2.38;;;;;;;;;;4907488;29;20060;-73
2024/02/12 03:30:14;;;;;;;7.15;2.35;;;;;;;;;;4907821;29;20492;-74
2024/02/12 03:32:46;;;;;;;6.53;2.45;;;;;;;;;;4907383;29;20048;-73
2024/02/12 03:35:17;;;;;;;6.38;2.55;;;;;;;;;;4907538;29;20633;-74
2024/02/12 03:37:50;;;;;;;6.28;2.50;;;;;;;;;;4907726;29;20059;-74
2024/02/12 03:40:22;;;;;;;5.75;2.50;;;;;;;;;;4907323;29;20555;-73
2024/02/12 03:42:53;;;;;;;7.20;2.72;;;;;;;;;;4907320;29;20059;-75
2024/02/12 03:45:24;;;;;;;3.78;2.22;;;;;;;;;;4907094;29;20052;-73
2024/02/12 03:48:00;;;;;;;6.93;2.67;;;;;;;;;;4907523;29;20059;-75
2024/02/12 04:01:50;;;;;;;5.22;2.30;;;;;;;;;;4907549;29;20529;-74
2024/02/12 04:04:20;;;;;;;4.80;2.63;;;;;;;;;;4905769;29;20055;-74
2024/02/12 04:06:51;;;;;;;9.00;2.60;;;;;;;;;;4907544;29;20075;-73
2024/02/12 04:09:23;;;;;;;6.00;2.67;;;;;;;;;;4906710;29;20055;-74
2024/02/12 04:11:54;;;;;;;9.40;2.50;;;;;;;;;;4907006;29;20056;-75
2024/02/12 04:14:24;;;;;;;9.25;2.90;;;;;;;;;;4906784;29;20048;-73
2024/02/12 04:16:56;;;;;;;6.50;2.83;;;;;;;;;;4904618;29;20511;-74
2024/02/12 04:19:28;;;;;;;12.80;2.55;;;;;;;;;;4906319;29;20055;-74
2024/02/12 04:21:59;;;;;;;8.70;2.72;;;;;;;;;;4906957;29;20048;-73
2024/02/12 04:24:29;;;;;;;7.07;2.65;;;;;;;;;;4906734;29;20043;-74
2024/02/12 04:27:03;;;;;;;12.10;3.50;;;;;;;;;;4906243;29;20063;-73
2024/02/12 04:29:37;;;;;;;14.63;3.40;;;;;;;;;;4906459;29;20093;-75
2024/02/12 04:32:15;;;;;;;5.93;2.60;;;;;;;;;;4906704;29;20516;-74
2024/02/12 04:34:47;;;;;;;5.43;2.60;;;;;;;;;;4906837;29;20059;-74
2024/02/12 04:37:19;;;;;;;5.72;2.97;;;;;;;;;;4904731;29;20056;-74
2024/02/12 04:39:50;;;;;;;9.05;2.90;;;;;;;;;;4906950;29;20044;-74
2024/02/12 04:42:21;;;;;;;8.18;3.50;;;;;;;;;;4906410;29;20424;-74
2024/02/12 04:44:51;;;;;;;4.63;2.92;;;;;;;;;;4904489;29;20067;-73
2024/02/12 04:47:22;;;;;;;8.07;2.85;;;;;;;;;;4906352;29;20543;-75
2024/02/12 04:49:54;;;;;;;12.00;3.72;;;;;;;;;;4889628;29;20451;-74
2024/02/12 04:52:25;;;;;;;10.55;3.03;;;;;;;;;;4907159;29;20056;-74
2024/02/12 04:54:56;;;;;;;5.20;3.40;;;;;;;;;;4906566;29;20883;-75
2024/02/12 04:57:26;;;;;;;8.57;2.95;;;;;;;;;;4906043;29;20526;-74
2024/02/12 04:59:57;;;;;;;12.38;2.80;;;;;;;;;;4906787;29;20511;-73
2024/02/12 05:02:27;;;;;;;10.15;3.95;;;;;;;;;;4906468;29;20385;-74
2024/02/12 05:04:58;;;;;;;7.57;2.60;;;;;;;;;;4905917;29;20384;-74
2024/02/12 05:07:31;;;;;;;4.47;3.55;;;;;;;;;;4906087;29;20067;-74
2024/02/12 05:10:02;;;;;;;8.32;3.20;;;;;;;;;;4905855;29;20052;-74
2024/02/12 05:12:32;;;;;;;7.38;3.35;;;;;;;;;;4906666;29;20055;-75
2024/02/12 05:15:03;;;;;;;6.97;3.22;;;;;;;;;;4906140;29;20055;-74
2024/02/12 05:17:54;;;;;;;4.38;2.63;;;;;;;;;;4906010;29;20047;-74
2024/02/12 05:23:14;;;;;;;7.07;2.72;;;;;;;;;;4910019;29;20511;-74
2024/02/12 05:25:45;;;;;;;8.00;3.13;;;;;;;;;;4908310;29;20063;-74
2024/02/12 05:28:17;;;;;;;8.90;2.92;;;;;;;;;;4910521;29;20063;-73
2024/02/12 05:30:48;;;;;;;4.57;2.70;;;;;;;;;;4909471;29;20063;-74
2024/02/12 05:33:19;;;;;;;11.00;3.72;;;;;;;;;;4909976;29;20432;-74
2024/02/12 05:35:57;;;;;;;9.32;3.35;;;;;;;;;;4909395;29;20056;-73
2024/02/12 05:39:00;;;;;;;6.57;3.20;;;;;;;;;;4909120;29;20431;-76
2024/02/12 05:41:31;;;;;;;9.35;3.35;;;;;;;;;;4909668;29;20052;-75
2024/02/12 05:44:01;;;;;;;6.70;3.17;;;;;;;;;;4909584;29;20055;-76
2024/02/12 05:46:32;;;;;;;13.88;3.83;;;;;;;;;;4909538;29;20048;-74
2024/02/12 05:49:03;;;;;;;12.10;3.40;;;;;;;;;;4909228;29;20048;-75
2024/02/12 05:51:35;;;;;;;9.00;3.28;;;;;;;;;;4909454;29;20051;-75
2024/02/12 05:54:05;;;;;;;7.05;2.85;;;;;;;;;;4909376;29;20063;-76
2024/02/12 05:56:39;;;;;;;10.95;3.00;;;;;;;;;;4908664;29;20427;-75
2024/02/12 05:59:11;;;;;;;9.13;3.60;;;;;;;;;;4909187;29;20044;-75
2024/02/12 06:01:43;;;;;;;9.52;3.28;;;;;;;;;;4908816;29;20048;-75
2024/02/12 06:04:13;;;;;;;9.88;4.13;;;;;;;;;;4907094;29;20410;-75
2024/02/12 06:06:45;;;;;;;7.35;3.22;;;;;;;;;;4908606;29;20492;-74
2024/02/12 06:09:17;;;;;;;10.95;3.85;;;;;;;;;;4909022;29;20048;-75
2024/02/12 06:11:48;;;;;;;8.98;3.58;;;;;;;;;;4908678;29;20059;-75
2024/02/12 06:14:19;;;;;;;7.13;2.63;;;;;;;;;;4908736;29;20072;-76
2024/02/12 06:16:49;;;;;;;11.05;3.35;;;;;;;;;;4909695;29;20048;-74
2024/02/12 06:19:20;;;;;;;16.38;3.60;;;;;;;;;;4909785;29;20052;-75
2024/02/12 06:21:52;;;;;;;5.53;2.90;;;;;;;;;;4909294;29;20052;-75
2024/02/12 06:24:22;;;;;;;11.15;3.55;;;;;;;;;;4908558;29;20547;-74
2024/02/12 06:26:52;;;;;;;8.40;3.63;;;;;;;;;;4908869;29;20060;-80
2024/02/12 06:29:25;;;;;;;8.80;3.20;;;;;;;;;;4908845;29;20047;-75
2024/02/12 06:31:56;;;;;;;7.95;3.20;;;;;;;;;;4907587;29;20059;-76
2024/02/12 06:34:26;;;;;;;8.68;3.80;;;;;;;;;;4909023;29;20420;-75
2024/02/12 06:36:56;;;;;;;6.03;3.20;;;;;;;;;;4908314;29;20451;-74
2024/02/12 06:39:27;;;;;;;4.15;2.95;;;;;;;;;;4905726;29;20642;-75
2024/02/12 06:41:58;;;;;;;8.65;3.20;;;;;;;;;;4908890;29;20067;-76
2024/02/12 06:44:29;;;;;;;6.28;2.97;;;;;;;;;;4908619;29;20052;-76
2024/02/12 06:47:00;;;;;;;9.25;3.33;;;;;;;;;;4908747;29;20053;-75
2024/02/12 06:49:30;;;;;;;4.63;3.10;;;;;;;;;;4906455;29;20056;-76
2024/02/12 06:52:01;;;;;;;10.00;3.28;;;;;;;;;;4908486;29;20496;-75
2024/02/12 06:54:33;;;;;;;7.97;2.92;;;;;;;;;;4908092;29;20597;-75
2024/02/12 06:57:04;;;;;;;5.43;2.90;;;;;;;;;;4906724;29;20064;-75
2024/02/12 06:59:34;;;;;;;12.75;3.55;;;;;;;;;;4906361;29;20052;-75
2024/02/12 07:02:05;;;;;;;7.72;3.15;;;;;;;;;;4908254;29;20051;-75
2024/02/12 07:04:37;;;;;;;8.48;4.18;;;;;;;;;;4908973;29;20056;-74
2024/02/12 07:07:07;;;;;;;6.07;3.20;;;;;;;;;;4908574;29;20059;-75
2024/02/12 07:09:37;;;;;;;6.22;3.15;;;;;;;;;;4908210;29;20044;-75
2024/02/12 07:12:08;;;;;;;4.85;3.30;;;;;;;;;;4907788;29;20056;-75
2024/02/12 07:14:38;;;;;;;8.48;3.08;;;;;;;;;;4907636;29;20056;-76
2024/02/12 07:17:09;;;;;;;6.75;3.10;;;;;;;;;;4907936;29;20052;-74
2024/02/12 07:19:51;;;;;;;5.90;3.00;;;;;;;;;;4907886;29;20056;-74
2024/02/12 07:22:26;;;;;;;8.98;3.95;;;;;;;;;;4907834;29;20059;-75
2024/02/12 07:24:59;;;;;;;4.05;2.88;;;;;;;;;;4907807;29;20514;-76
2024/02/12 07:27:30;;;;;;;11.18;4.03;;;;;;;;;;4907566;29;20415;-75
2024/02/12 07:30:01;;;;;;;6.93;3.38;;;;;;;;;;4905428;29;20865;-75
2024/02/12 07:32:32;;;;;;;6.07;2.67;;;;;;;;;;4906977;29;20048;-75
2024/02/12 07:35:04;;;;;;;8.18;3.30;;;;;;;;;;4907378;29;20063;-76
2024/02/12 07:37:39;;;;;;;6.43;3.63;;;;;;;;;;4907550;29;20044;-76
2024/02/12 07:40:10;;;;;;;5.75;3.60;;;;;;;;;;4907415;29;20075;-75
2024/02/12 07:42:45;;;;;;;10.60;3.35;;;;;;;;;;4908035;29;20451;-75
2024/02/12 07:45:16;;;;;;;7.63;4.07;;;;;;;;;;4907646;29;20447;-75
2024/02/12 07:47:47;;;;;;;6.75;2.97;;;;;;;;;;4907693;29;20059;-76
2024/02/12 07:50:17;;;;;;;12.55;3.83;;;;;;;;;;4905886;29;20491;-74
2024/02/12 07:52:47;;;;;;;6.18;3.30;;;;;;;;;;4907336;29;20269;-76
2024/02/12 07:55:20;;;;;;;6.38;2.97;;;;;;;;;;4907691;29;20056;-74
2024/02/12 07:57:50;;;;;;;8.00;3.45;;;;;;;;;;4906157;29;20055;-75
2024/02/12 08:00:20;;;;;;;8.23;3.22;;;;;;;;;;4906816;29;20044;-75
2024/02/12 08:02:53;;;;;;;8.57;3.20;;;;;;;;;;4907338;29;20048;-75
2024/02/12 08:05:24;;;;;;;8.65;3.55;;;;;;;;;;4907513;29;20052;-75
2024/02/12 08:07:55;;;;;;;7.32;3.53;;;;;;;;;;4907106;29;20060;-76
2024/02/12 08:10:32;;;;;;;7.38;3.13;;;;;;;;;;4907595;29;20052;-74
2024/02/12 08:13:04;;;;;;;8.70;3.22;;;;;;;;;;4906835;29;20063;-72
2024/02/12 08:15:37;;;;;;;8.32;3.45;;;;;;;;;;4907205;29;20056;-74
2024/02/12 08:18:08;;;;;;;10.60;4.05;;;;;;;;;;4906345;29;20419;-73
2024/02/12 08:20:39;;;;;;;7.18;3.50;;;;;;;;;;4907062;29;20484;-74
2024/02/12 08:23:10;;;;;;;8.30;3.50;;;;;;;;;;4906354;29;20052;-74
2024/02/12 08:25:42;;;;;;;8.77;3.90;;;;;;;;;;4906819;29;20060;-73
2024/02/12 08:28:12;;;;;;;6.10;3.22;;;;;;;;;;4906900;29;20048;-76
2024/02/12 08:30:44;;;;;;;7.45;3.00;;;;;;;;;;4905195;29;20063;-73
2024/02/12 08:33:15;;;;;;;7.40;3.40;;;;;;;;;;4905151;29;20053;-73
2024/02/12 08:35:47;;;;;;;6.70;3.92;;;;;;;;;;4905947;29;20044;-74
2024/02/12 08:38:17;;;;;;;6.90;3.28;;;;;;;;;;4906672;29;20510;-75
2024/02/12 08:40:51;;;;;;;4.63;3.38;;;;;;;;;;4906591;29;20055;-75
2024/02/12 08:43:22;;;;;;;6.22;2.97;;;;;;;;;;4906436;29;20500;-75
2024/02/12 08:45:52;;;;;;;8.45;3.42;;;;;;;;;;4904905;29;20067;-75
2024/02/12 08:48:23;;;;;;;6.13;2.95;;;;;;;;;;4905877;29;20059;-75
2024/02/12 08:50:53;;;;;;;4.63;3.58;;;;;;;;;;4906089;29;20084;-75
2024/02/12 08:53:24;;;;;;;5.20;3.88;;;;;;;;;;4905926;29;20052;-75
2024/02/12 08:59:06;;;;;;;5.28;3.63;;;;;;;;;;4904568;29;20052;-75
2024/02/12 09:01:38;;;;;;;6.93;3.15;;;;;;;;;;4906936;29;20055;-74
2024/02/12 09:04:09;;;;;;;6.35;3.33;;;;;;;;;;4906354;29;20768;-75
2024/02/12 09:06:40;;;;;;;5.03;3.00;;;;;;;;;;4906577;29;20526;-75
2024/02/12 09:09:13;;;;;;;6.72;3.10;;;;;;;;;;4903444;29;20052;-75
2024/02/12 09:11:43;;;;;;;6.10;3.30;;;;;;;;;;4906191;29;20424;-75
2024/02/12 09:14:17;;;;;;;7.93;3.85;;;;;;;;;;4906107;29;20427;-75
2024/02/12 09:16:49;;;;;;;6.03;3.60;;;;;;;;;;4906173;29;20515;-75
2024/02/12 09:19:19;;;;;;;6.50;3.03;;;;;;;;;;4905891;29;20052;-75
2024/02/12 09:21:50;;;;;;;5.88;3.00;;;;;;;;;;4906277;29;20056;-75
2024/02/12 09:24:22;;;;;;;4.38;3.17;;;;;;;;;;4906137;29;20051;-75
2024/02/12 09:26:53;;;;;;;6.13;3.13;;;;;;;;;;4906351;29;20056;-76
2024/02/12 09:29:24;;;;;;;9.15;3.05;;;;;;;;;;4904657;29;20060;-76
2024/02/12 09:31:54;;;;;;;7.93;3.80;;;;;;;;;;4905644;29;20496;-75
2024/02/12 09:34:27;;;;;;;8.82;3.03;;;;;;;;;;4906035;29;20055;-76
2024/02/12 09:36:58;;;;;;;5.63;3.08;;;;;;;;;;4905838;29;20111;-75
2024/02/12 09:39:29;;;;;;;5.75;3.25;;;;;;;;;;4906080;29;20055;-76
2024/02/12 09:42:01;;;;;;;5.88;3.97;;;;;;;;;;4905773;29;20431;-74
2024/02/12 09:45:11;;;;;;;9.15;3.55;;;;;;;;;;4905847;29;20420;-76
2024/02/12 09:47:43;;;;;;;7.65;3.65;;;;;;;;;;4906392;29;20408;-75
2024/02/12 09:50:15;;;;;;;10.48;3.33;;;;;;;;;;4906097;29;20059;-76
2024/02/12 09:52:45;;;;;;;10.50;3.20;;;;;;;;;;4905861;29;20052;-76
2024/02/12 09:55:19;;;;;;;7.15;3.42;;;;;;;;;;4906595;29;20048;-75
2024/02/12 09:57:52;;;;;;;7.93;3.20;;;;;;;;;;4904605;29;20083;-76
2024/02/12 10:00:22;;;;;;;16.00;3.58;;;;;;;;;;4905629;29;20043;-76
2024/02/12 10:02:53;;;;;;;7.53;3.50;;;;;;;;;;4905588;29;20059;-76
2024/02/12 10:05:26;;;;;;;12.05;3.38;;;;;;;;;;4905313;29;20052;-75
2024/02/12 10:08:01;;;;;;;17.45;3.50;;;;;;;;;;4908927;29;20048;-76
2024/02/12 10:10:34;;;;;;;7.88;3.50;;;;;;;;;;4908919;29;20059;-82
2024/02/12 10:13:07;;;;;;;10.80;3.20;;;;;;;;;;4908716;29;20520;-74
2024/02/12 10:15:41;;;;;;;8.77;3.47;;;;;;;;;;4909024;29;20079;-76
2024/02/12 10:18:16;;;;;;;7.15;3.67;;;;;;;;;;4908519;29;20590;-76
2024/02/12 10:20:48;;;;;;;18.13;4.00;;;;;;;;;;4909083;29;20052;-77
2024/02/12 10:23:19;;;;;;;16.65;4.07;;;;;;;;;;4909316;29;20063;-76
2024/02/12 10:25:52;;;;;;;9.45;3.63;;;;;;;;;;4908794;29;20052;-75
2024/02/12 10:28:22;;;;;;;22.52;4.65;;;;;;;;;;4906972;29;20056;-76
2024/02/12 10:30:53;;;;;;;9.07;3.42;;;;;;;;;;4909374;29;20548;-79
2024/02/12 10:33:24;;;;;;;6.75;2.90;;;;;;;;;;4908866;29;20059;-76
2024/02/12 10:35:57;;;;;;;6.43;3.88;;;;;;;;;;4908616;29;20048;-75
2024/02/12 10:38:29;;;;;;;6.53;3.20;;;;;;;;;;4908812;29;20056;-75
2024/02/12 10:41:31;;;;;;;6.85;2.72;;;;;;;;;;4909312;29;20052;-75
2024/02/12 10:44:02;;;;;;;10.90;3.15;;;;;;;;;;4908437;29;20515;-75
2024/02/12 10:46:37;;;;;;;9.32;2.50;;;;;;;;;;4908575;29;20063;-80
2024/02/12 10:49:09;;;;;;;5.60;2.72;;;;;;;;;;4908413;29;20063;-76
2024/02/12 10:51:42;;;;;;;5.25;2.75;;;;;;;;;;4908064;29;20056;-76
2024/02/12 10:54:12;;;;;;;4.40;2.22;;;;;;;;;;4907275;29;20054;-76
2024/02/12 10:56:45;;;;;;;7.90;2.63;;;;;;;;;;4907636;29;20052;-74
2024/02/12 10:59:17;;;;;;;12.75;2.80;;;;;;;;;;4907991;29;20059;-74
2024/02/12 11:01:50;;;;;;;9.60;2.60;;;;;;;;;;4907999;29;20052;-76
2024/02/12 11:04:26;;;;;;;5.57;2.40;;;;;;;;;;4906294;29;20056;-77
2024/02/12 11:07:18;;;;;;;5.15;2.80;;;;;;;;;;4907752;29;20063;-76
2024/02/12 11:10:03;;;;;;;12.98;2.67;;;;;;;;;;4908058;29;20056;-76
2024/02/12 11:12:34;;;;;;;8.90;2.75;;;;;;;;;;4908135;29;20063;-75
2024/02/12 11:15:43;;;;;;;7.68;2.50;;;;;;;;;;4908726;29;20044;-76
2024/02/12 11:18:35;;;;;;;9.20;4.35;;;;;;;;;;4903212;29;20060;-76
2024/02/12 11:21:11;;;;;;;8.45;2.65;;;;;;;;;;4908057;29;20052;-76
2024/02/12 11:23:42;;;;;;;6.80;2.50;;;;;;;;;;4907854;29;20056;-75
2024/02/12 11:26:15;;;;;;;5.88;2.45;;;;;;;;;;4908510;29;20051;-75
2024/02/12 11:28:54;;;;;;;7.35;2.80;;;;;;;;;;4907481;29;21157;-74
2024/02/12 11:31:26;;;;;;;6.32;2.67;;;;;;;;;;4890399;29;20048;-74
2024/02/12 11:33:59;;;;;;;6.90;2.60;;;;;;;;;;4907659;29;20056;-75
2024/02/12 11:36:29;;;;;;;6.80;2.90;;;;;;;;;;4907046;29;20052;-75
2024/02/12 11:39:01;;;;;;;6.88;2.92;;;;;;;;;;4905765;29;20477;-76
2024/02/12 11:41:32;;;;;;;5.55;2.70;;;;;;;;;;4907773;29;20056;-74
2024/02/12 11:44:07;;;;;;;7.72;2.80;;;;;;;;;;4907168;29;20083;-76
2024/02/12 11:46:38;;;;;;;7.53;2.90;;;;;;;;;;4891051;29;20043;-77
2024/02/12 11:49:09;;;;;;;6.30;2.78;;;;;;;;;;4907329;29;20048;-75
2024/02/12 11:51:40;;;;;;;9.40;2.90;;;;;;;;;;4907603;29;20056;-75
2024/02/12 11:54:13;;;;;;;7.43;2.90;;;;;;;;;;4907242;29;20056;-76
2024/02/12 11:56:46;;;;;;;9.65;2.90;;;;;;;;;;4907314;29;20044;-76
2024/02/12 11:59:21;;;;;;;12.80;3.00;;;;;;;;;;4907275;29;20052;-76
2024/02/12 12:01:52;;;;;;;9.18;2.80;;;;;;;;;;4906756;29;20535;-75
2024/02/12 12:04:23;;;;;;;6.25;2.88;;;;;;;;;;4905001;29;20056;-76
2024/02/12 12:06:56;;;;;;;11.43;2.88;;;;;;;;;;4907836;29;20048;-76
2024/02/12 12:09:29;;;;;;;4.72;2.55;;;;;;;;;;4908015;29;20056;-76
2024/02/12 12:12:00;;;;;;;14.43;3.58;;;;;;;;;;4905723;29;20060;-75
2024/02/12 12:14:38;;;;;;;9.10;2.75;;;;;;;;;;4906273;29;20400;-75
2024/02/12 12:17:09;;;;;;;11.75;2.97;;;;;;;;;;4906303;29;20064;-75
2024/02/12 12:20:01;;;;;;;6.55;3.30;;;;;;;;;;4906830;29;20052;-75
2024/02/12 12:22:32;;;;;;;8.70;3.03;;;;;;;;;;4906998;29;20040;-76
2024/02/12 12:25:04;;;;;;;8.73;2.65;;;;;;;;;;4906732;29;20063;-75
2024/02/12 12:27:37;;;;;;;7.88;3.00;;;;;;;;;;4907055;29;20118;-76
2024/02/12 12:30:20;;;;;;;5.07;2.58;;;;;;;;;;4905741;29;20052;-78
2024/02/12 12:32:52;;;;;;;6.60;2.35;;;;;;;;;;4906274;29;20059;-76
2024/02/12 12:35:23;;;;;;;4.80;2.30;;;;;;;;;;4904851;29;20052;-76
2024/02/12 12:42:12;;;;;;;9.45;2.42;;;;;;;;;;4907424;29;20060;-82
2024/02/12 12:44:44;;;;;;;7.88;2.38;;;;;;;;;;4906562;29;20085;-75
2024/02/12 12:47:14;;;;;;;8.80;2.40;;;;;;;;;;4904722;29;20593;-83
2024/02/12 12:49:44;;;;;;;10.25;2.10;;;;;;;;;;4903855;29;20052;-75
2024/02/12 12:52:15;;;;;;;5.13;2.25;;;;;;;;;;4905954;29;20419;-76
2024/02/12 12:54:47;;;;;;;5.43;1.70;;;;;;;;;;4906850;29;20080;-76
2024/02/12 12:57:17;;;;;;;9.32;2.10;;;;;;;;;;4906655;29;20047;-75
2024/02/12 12:59:48;;;;;;;3.63;2.00;;;;;;;;;;4906787;29;20044;-77
2024/02/12 13:02:20;;;;;;;6.53;2.20;;;;;;;;;;4907042;29;20762;-76
2024/02/12 13:04:52;;;;;;;10.10;2.03;;;;;;;;;;4905984;29;20055;-76
2024/02/12 13:07:23;;;;;;;5.57;2.40;;;;;;;;;;4906260;29;20423;-76
2024/02/12 13:09:53;;;;;;;7.70;1.90;;;;;;;;;;4906071;29;20056;-76
2024/02/12 13:12:24;;;;;;;9.65;2.90;;;;;;;;;;4906182;29;20053;-76
2024/02/12 13:14:55;;;;;;;6.95;2.25;;;;;;;;;;4906341;29;20424;-76
2024/02/12 13:17:25;;;;;;;3.42;2.00;;;;;;;;;;4904225;29;20052;-75
2024/02/12 13:19:55;;;;;;;7.78;2.63;;;;;;;;;;4906071;29;21389;-76
2024/02/12 13:22:26;;;;;;;9.13;2.13;;;;;;;;;;4905741;29;20518;-76
2024/02/12 13:24:59;;;;;;;5.70;2.20;;;;;;;;;;4905905;29;20048;-76
2024/02/12 13:27:40;;;;;;;7.20;2.35;;;;;;;;;;4906078;29;20422;-74
2024/02/12 13:30:11;;;;;;;8.70;2.22;;;;;;;;;;4906558;29;20052;-75
2024/02/12 13:32:47;;;;;;;6.03;2.03;;;;;;;;;;4906609;29;20052;-76
2024/02/12 13:35:18;;;;;;;8.43;1.83;;;;;;;;;;4905651;29;20052;-76
2024/02/12 13:37:50;;;;;;;5.55;1.88;;;;;;;;;;4906060;29;20051;-76
2024/02/12 13:40:24;;;;;;;2.50;1.90;;;;;;;;;;4906752;29;20048;-77
2024/02/12 13:42:56;;;;;;;8.50;2.00;;;;;;;;;;4908493;29;20055;-76
2024/02/12 13:45:27;;;;;;;3.15;1.85;;;;;;;;;;4910010;29;20539;-78
2024/02/12 13:47:57;;;;;;;5.97;2.20;;;;;;;;;;4909483;29;20055;-77
2024/02/12 13:50:27;;;;;;;8.63;2.20;;;;;;;;;;4909564;29;20055;-81
2024/02/12 13:52:58;;;;;;;8.48;2.85;;;;;;;;;;4909069;29;20047;-75
2024/02/12 13:55:30;;;;;;;7.20;1.90;;;;;;;;;;4909879;29;20056;-75
2024/02/12 13:58:00;;;;;;;4.90;2.00;;;;;;;;;;4910162;29;20048;-75
2024/02/12 14:00:31;;;;;;;4.78;1.88;;;;;;;;;;4909518;29;20052;-75
2024/02/12 14:03:25;;;;;;;9.52;2.50;;;;;;;;;;4909530;29;20048;-75
2024/02/12 14:05:58;;;;;;;8.15;2.30;;;;;;;;;;4907632;29;20060;-75
2024/02/12 14:08:28;;;;;;;5.60;2.00;;;;;;;;;;4909160;29;20055;-77
2024/02/12 14:10:59;;;;;;;6.63;2.00;;;;;;;;;;4909501;29;20059;-76
2024/02/12 14:13:30;;;;;;;10.15;2.00;;;;;;;;;;4908830;29;20060;-75
2024/02/12 14:16:00;;;;;;;6.85;2.30;;;;;;;;;;4909151;29;20056;-76
2024/02/12 14:18:42;;;;;;;7.57;2.20;;;;;;;;;;4908846;29;20052;-76
2024/02/12 14:21:13;;;;;;;6.68;2.70;;;;;;;;;;4891749;29;20056;-76
2024/02/12 14:23:43;;;;;;;8.45;2.70;;;;;;;;;;4908715;29;20055;-76
2024/02/12 14:26:16;;;;;;;5.13;1.80;;;;;;;;;;4910001;29;20167;-73
2024/02/12 14:28:46;;;;;;;5.95;2.08;;;;;;;;;;4908913;29;20044;-74
2024/02/12 14:31:17;;;;;;;7.88;2.05;;;;;;;;;;4908599;29;20496;-76
2024/02/12 14:33:49;;;;;;;4.00;1.88;;;;;;;;;;4906602;29;20060;-76
2024/02/12 14:36:21;;;;;;;11.32;2.63;;;;;;;;;;4906243;29;20063;-75
2024/02/12 14:38:51;;;;;;;9.38;2.33;;;;;;;;;;4908474;29;20059;-74
2024/02/12 14:41:23;;;;;;;6.47;2.22;;;;;;;;;;4908284;29;20050;-75
2024/02/12 14:43:55;;;;;;;11.55;2.08;;;;;;;;;;4906696;29;20538;-76
2024/02/12 14:46:26;;;;;;;7.57;2.55;;;;;;;;;;4908343;29;20063;-75
2024/02/12 14:48:57;;;;;;;7.97;2.65;;;;;;;;;;4908263;29;20055;-75
2024/02/12 14:51:29;;;;;;;10.57;3.20;;;;;;;;;;4908104;29;20055;-75
2024/02/12 14:53:59;;;;;;;12.52;3.55;;;;;;;;;;4907495;29;20504;-75
2024/02/12 14:56:31;;;;;;;12.95;2.65;;;;;;;;;;4906943;29;20059;-75
2024/02/12 14:59:03;;;;;;;11.25;2.83;;;;;;;;;;4908732;29;20052;-77
2024/02/12 15:01:41;;;;;;;8.48;2.33;;;;;;;;;;4908450;29;20067;-75
2024/02/12 15:04:12;;;;;;;6.47;2.15;;;;;;;;;;4908588;29;20048;-75
2024/02/12 15:06:42;;;;;;;6.88;3.00;;;;;;;;;;4908288;29;20444;-75
2024/02/12 15:09:24;;;;;;;8.15;2.38;;;;;;;;;;4907951;29;20508;-75
2024/02/12 15:11:55;;;;;;;7.90;2.28;;;;;;;;;;4907724;29;20480;-75
2024/02/12 15:14:27;;;;;;;6.68;2.53;;;;;;;;;;4908816;29;20070;-76
2024/02/12 15:16:58;;;;;;;7.13;2.15;;;;;;;;;;4907807;29;20496;-75
2024/02/12 15:19:29;;;;;;;11.23;2.33;;;;;;;;;;4907934;29;20040;-76
2024/02/12 15:21:59;;;;;;;6.10;2.50;;;;;;;;;;4909013;29;20044;-75
2024/02/12 15:24:29;;;;;;;8.63;2.28;;;;;;;;;;4907807;29;20428;-76
2024/02/12 15:26:59;;;;;;;6.78;2.17;;;;;;;;;;4908879;29;20064;-76
2024/02/12 15:29:33;;;;;;;6.28;2.10;;;;;;;;;;4908062;29;20044;-75
2024/02/12 15:32:06;;;;;;;9.07;2.25;;;;;;;;;;4908285;29;20056;-75
2024/02/12 15:34:40;;;;;;;6.65;1.92;;;;;;;;;;4907477;29;20316;-76
2024/02/12 15:37:11;;;;;;;13.20;2.28;;;;;;;;;;4907667;29;20060;-75